sensor_id;sensor_type;location;lat;lon;timestamp;temperature;humidity
40670;DHT22;26355;45.528;9.234;2023-05-29T00:00:16;23.90;99.90
40670;DHT22;26355;45.528;9.234;2023-05-29T00:02:43;23.90;99.90
40670;DHT22;26355;45.528;9.234;2023-05-29T00:05:10;23.90;99.90
40670;DHT22;26355;45.528;9.234;2023-05-29T00:07:37;23.80;99.90
40670;DHT22;26355;45.528;9.234;2023-05-29T00:10:04;23.80;99.90
40670;DHT22;26355;45.528;9.234;2023-05-29T00:12:29;23.80;99.90
40670;DHT22;26355;45.528;9.234;2023-05-29T00:14:55;23.80;99.90
40670;DHT22;26355;45.528;9.234;2023-05-29T00:17:21;23.70;99.90
40670;DHT22;26355;45.528;9.234;2023-05-29T00:19:47;23.60;99.90
40670;DHT22;26355;45.528;9.234;2023-05-29T00:22:12;23.70;99.90
40670;DHT22;26355;45.528;9.234;2023-05-29T00:24:38;23.70;99.90
40670;DHT22;26355;45.528;9.234;2023-05-29T00:27:04;23.60;99.90
40670;DHT22;26355;45.528;9.234;2023-05-29T00:29:29;23.60;99.90
40670;DHT22;26355;45.528;9.234;2023-05-29T00:31:56;23.50;99.90
40670;DHT22;26355;45.528;9.234;2023-05-29T00:34:22;23.60;99.90
40670;DHT22;26355;45.528;9.234;2023-05-29T00:36:48;23.60;99.90
40670;DHT22;26355;45.528;9.234;2023-05-29T00:39:14;23.50;99.90
40670;DHT22;26355;45.528;9.234;2023-05-29T00:41:40;23.60;99.90
40670;DHT22;26355;45.528;9.234;2023-05-29T00:44:06;23.50;99.90
40670;DHT22;26355;45.528;9.234;2023-05-29T00:46:32;23.50;99.90
40670;DHT22;26355;45.528;9.234;2023-05-29T00:49:01;23.50;99.90
40670;DHT22;26355;45.528;9.234;2023-05-29T00:51:27;23.50;99.90
40670;DHT22;26355;45.528;9.234;2023-05-29T00:53:54;23.50;99.90
40670;DHT22;26355;45.528;9.234;2023-05-29T00:56:21;23.40;99.90
40670;DHT22;26355;45.528;9.234;2023-05-29T00:58:49;23.50;99.90
40670;DHT22;26355;45.528;9.234;2023-05-29T01:01:18;23.50;99.90
40670;DHT22;26355;45.528;9.234;2023-05-29T01:03:44;23.50;99.90
40670;DHT22;26355;45.528;9.234;2023-05-29T01:06:10;23.40;99.90
40670;DHT22;26355;45.528;9.234;2023-05-29T01:08:36;23.40;99.90
40670;DHT22;26355;45.528;9.234;2023-05-29T01:11:17;23.40;99.90
40670;DHT22;26355;45.528;9.234;2023-05-29T01:13:49;23.40;99.90
40670;DHT22;26355;45.528;9.234;2023-05-29T01:16:25;23.40;99.90
40670;DHT22;26355;45.528;9.234;2023-05-29T01:18:59;23.40;99.90
40670;DHT22;26355;45.528;9.234;2023-05-29T01:24:32;23.30;99.90
40670;DHT22;26355;45.528;9.234;2023-05-29T01:27:03;23.30;99.90
40670;DHT22;26355;45.528;9.234;2023-05-29T01:29:32;23.30;99.90
40670;DHT22;26355;45.528;9.234;2023-05-29T01:31:59;23.30;99.90
40670;DHT22;26355;45.528;9.234;2023-05-29T01:34:27;23.20;99.90
40670;DHT22;26355;45.528;9.234;2023-05-29T01:36:52;23.30;99.90
40670;DHT22;26355;45.528;9.234;2023-05-29T01:39:18;23.30;99.90
40670;DHT22;26355;45.528;9.234;2023-05-29T01:41:45;23.20;99.90
40670;DHT22;26355;45.528;9.234;2023-05-29T01:44:12;23.20;99.90
40670;DHT22;26355;45.528;9.234;2023-05-29T01:46:42;23.20;99.90
40670;DHT22;26355;45.528;9.234;2023-05-29T01:49:09;23.20;99.90
40670;DHT22;26355;45.528;9.234;2023-05-29T01:51:36;23.10;99.90
40670;DHT22;26355;45.528;9.234;2023-05-29T01:54:02;23.10;99.90
40670;DHT22;26355;45.528;9.234;2023-05-29T01:56:28;23.20;99.90
40670;DHT22;26355;45.528;9.234;2023-05-29T01:58:55;23.30;99.90
40670;DHT22;26355;45.528;9.234;2023-05-29T02:01:22;23.30;99.90
40670;DHT22;26355;45.528;9.234;2023-05-29T02:03:48;23.30;99.90
40670;DHT22;26355;45.528;9.234;2023-05-29T02:06:14;23.30;99.90
40670;DHT22;26355;45.528;9.234;2023-05-29T02:08:40;23.30;99.90
40670;DHT22;26355;45.528;9.234;2023-05-29T02:11:06;23.30;99.90
40670;DHT22;26355;45.528;9.234;2023-05-29T02:13:32;23.30;99.90
40670;DHT22;26355;45.528;9.234;2023-05-29T02:15:57;23.30;99.90
40670;DHT22;26355;45.528;9.234;2023-05-29T02:18:23;23.30;99.90
40670;DHT22;26355;45.528;9.234;2023-05-29T02:20:49;23.30;99.90
40670;DHT22;26355;45.528;9.234;2023-05-29T02:23:14;23.30;99.90
40670;DHT22;26355;45.528;9.234;2023-05-29T02:25:41;23.20;99.90
40670;DHT22;26355;45.528;9.234;2023-05-29T02:28:07;23.20;99.90
40670;DHT22;26355;45.528;9.234;2023-05-29T02:30:32;23.20;99.90
40670;DHT22;26355;45.528;9.234;2023-05-29T02:32:58;23.20;99.90
40670;DHT22;26355;45.528;9.234;2023-05-29T02:35:24;23.20;99.90
40670;DHT22;26355;45.528;9.234;2023-05-29T02:37:50;23.20;99.90
40670;DHT22;26355;45.528;9.234;2023-05-29T02:40:16;23.20;99.90
40670;DHT22;26355;45.528;9.234;2023-05-29T02:42:42;23.20;99.90
40670;DHT22;26355;45.528;9.234;2023-05-29T02:45:08;23.20;99.90
40670;DHT22;26355;45.528;9.234;2023-05-29T02:47:34;23.20;99.90
40670;DHT22;26355;45.528;9.234;2023-05-29T02:50:00;23.20;99.90
40670;DHT22;26355;45.528;9.234;2023-05-29T02:52:26;23.20;99.90
40670;DHT22;26355;45.528;9.234;2023-05-29T02:54:52;23.20;99.90
40670;DHT22;26355;45.528;9.234;2023-05-29T02:57:19;23.20;99.90
40670;DHT22;26355;45.528;9.234;2023-05-29T02:59:45;23.30;99.90
40670;DHT22;26355;45.528;9.234;2023-05-29T03:02:11;23.30;99.90
40670;DHT22;26355;45.528;9.234;2023-05-29T03:04:37;23.30;99.90
40670;DHT22;26355;45.528;9.234;2023-05-29T03:07:02;23.30;99.90
40670;DHT22;26355;45.528;9.234;2023-05-29T03:09:28;23.20;99.90
40670;DHT22;26355;45.528;9.234;2023-05-29T03:11:54;23.20;99.90
40670;DHT22;26355;45.528;9.234;2023-05-29T03:14:19;23.20;99.90
40670;DHT22;26355;45.528;9.234;2023-05-29T03:16:47;23.10;99.90
40670;DHT22;26355;45.528;9.234;2023-05-29T03:19:13;23.20;99.90
40670;DHT22;26355;45.528;9.234;2023-05-29T03:21:38;23.20;99.90
40670;DHT22;26355;45.528;9.234;2023-05-29T03:24:04;23.20;99.90
40670;DHT22;26355;45.528;9.234;2023-05-29T03:26:30;23.10;99.90
40670;DHT22;26355;45.528;9.234;2023-05-29T03:28:56;23.10;99.90
40670;DHT22;26355;45.528;9.234;2023-05-29T03:31:22;23.10;99.90
40670;DHT22;26355;45.528;9.234;2023-05-29T03:33:49;23.10;99.90
40670;DHT22;26355;45.528;9.234;2023-05-29T03:36:14;23.10;99.90
40670;DHT22;26355;45.528;9.234;2023-05-29T03:38:42;23.00;99.90
40670;DHT22;26355;45.528;9.234;2023-05-29T03:41:08;23.00;99.90
40670;DHT22;26355;45.528;9.234;2023-05-29T03:43:34;23.00;99.90
40670;DHT22;26355;45.528;9.234;2023-05-29T03:45:59;23.00;99.90
40670;DHT22;26355;45.528;9.234;2023-05-29T03:48:25;22.90;99.90
40670;DHT22;26355;45.528;9.234;2023-05-29T03:50:51;23.00;99.90
40670;DHT22;26355;45.528;9.234;2023-05-29T03:53:16;23.00;99.90
40670;DHT22;26355;45.528;9.234;2023-05-29T03:55:42;23.10;99.90
40670;DHT22;26355;45.528;9.234;2023-05-29T03:58:07;23.00;99.90
40670;DHT22;26355;45.528;9.234;2023-05-29T04:00:33;23.00;99.90
40670;DHT22;26355;45.528;9.234;2023-05-29T04:02:58;23.00;99.90
40670;DHT22;26355;45.528;9.234;2023-05-29T04:05:24;22.90;99.90
40670;DHT22;26355;45.528;9.234;2023-05-29T04:07:52;23.00;99.90
40670;DHT22;26355;45.528;9.234;2023-05-29T04:10:17;23.00;99.90
40670;DHT22;26355;45.528;9.234;2023-05-29T04:12:43;22.90;99.90
40670;DHT22;26355;45.528;9.234;2023-05-29T04:15:09;22.90;99.90
40670;DHT22;26355;45.528;9.234;2023-05-29T04:17:34;22.90;99.90
40670;DHT22;26355;45.528;9.234;2023-05-29T04:20:00;22.90;99.90
40670;DHT22;26355;45.528;9.234;2023-05-29T04:22:31;22.80;99.90
40670;DHT22;26355;45.528;9.234;2023-05-29T04:24:57;22.80;99.90
40670;DHT22;26355;45.528;9.234;2023-05-29T04:27:22;22.80;99.90
40670;DHT22;26355;45.528;9.234;2023-05-29T04:29:48;22.90;99.90
40670;DHT22;26355;45.528;9.234;2023-05-29T04:32:13;22.80;99.90
40670;DHT22;26355;45.528;9.234;2023-05-29T04:34:39;22.70;99.90
40670;DHT22;26355;45.528;9.234;2023-05-29T04:37:05;22.70;99.90
40670;DHT22;26355;45.528;9.234;2023-05-29T04:39:31;22.70;99.90
40670;DHT22;26355;45.528;9.234;2023-05-29T04:41:57;22.60;99.90
40670;DHT22;26355;45.528;9.234;2023-05-29T04:44:26;22.60;99.90
40670;DHT22;26355;45.528;9.234;2023-05-29T04:46:52;22.40;99.90
40670;DHT22;26355;45.528;9.234;2023-05-29T04:49:18;22.40;99.90
40670;DHT22;26355;45.528;9.234;2023-05-29T04:51:44;22.50;99.90
40670;DHT22;26355;45.528;9.234;2023-05-29T04:54:10;22.50;99.90
40670;DHT22;26355;45.528;9.234;2023-05-29T04:56:36;22.50;99.90
40670;DHT22;26355;45.528;9.234;2023-05-29T04:59:03;22.50;99.90
40670;DHT22;26355;45.528;9.234;2023-05-29T05:01:28;22.40;99.90
40670;DHT22;26355;45.528;9.234;2023-05-29T05:03:54;22.40;99.90
40670;DHT22;26355;45.528;9.234;2023-05-29T05:06:23;22.40;99.90
40670;DHT22;26355;45.528;9.234;2023-05-29T05:08:51;22.40;99.90
40670;DHT22;26355;45.528;9.234;2023-05-29T05:11:17;22.40;99.90
40670;DHT22;26355;45.528;9.234;2023-05-29T05:13:43;22.30;99.90
40670;DHT22;26355;45.528;9.234;2023-05-29T05:16:08;22.30;99.90
40670;DHT22;26355;45.528;9.234;2023-05-29T05:18:35;22.30;99.90
40670;DHT22;26355;45.528;9.234;2023-05-29T05:21:00;22.20;99.90
40670;DHT22;26355;45.528;9.234;2023-05-29T05:23:28;22.20;99.90
40670;DHT22;26355;45.528;9.234;2023-05-29T05:25:54;22.20;99.90
40670;DHT22;26355;45.528;9.234;2023-05-29T05:28:19;22.10;99.90
40670;DHT22;26355;45.528;9.234;2023-05-29T05:30:45;22.10;99.90
40670;DHT22;26355;45.528;9.234;2023-05-29T05:33:11;22.00;99.90
40670;DHT22;26355;45.528;9.234;2023-05-29T05:35:37;21.80;99.90
40670;DHT22;26355;45.528;9.234;2023-05-29T05:38:02;21.80;99.90
40670;DHT22;26355;45.528;9.234;2023-05-29T05:40:28;21.70;99.90
40670;DHT22;26355;45.528;9.234;2023-05-29T05:42:53;21.60;99.90
40670;DHT22;26355;45.528;9.234;2023-05-29T05:45:19;21.50;99.90
40670;DHT22;26355;45.528;9.234;2023-05-29T05:47:45;21.50;99.90
40670;DHT22;26355;45.528;9.234;2023-05-29T05:50:11;21.50;99.90
40670;DHT22;26355;45.528;9.234;2023-05-29T05:52:40;21.40;99.90
40670;DHT22;26355;45.528;9.234;2023-05-29T05:55:09;21.30;99.90
40670;DHT22;26355;45.528;9.234;2023-05-29T05:57:35;21.40;99.90
40670;DHT22;26355;45.528;9.234;2023-05-29T06:00:02;21.40;99.90
40670;DHT22;26355;45.528;9.234;2023-05-29T06:02:33;21.40;99.90
40670;DHT22;26355;45.528;9.234;2023-05-29T06:04:58;21.30;99.90
40670;DHT22;26355;45.528;9.234;2023-05-29T06:07:24;21.30;99.90
40670;DHT22;26355;45.528;9.234;2023-05-29T06:09:50;21.40;99.90
40670;DHT22;26355;45.528;9.234;2023-05-29T06:12:15;21.40;99.90
40670;DHT22;26355;45.528;9.234;2023-05-29T06:14:41;21.40;99.90
40670;DHT22;26355;45.528;9.234;2023-05-29T06:17:06;21.40;99.90
40670;DHT22;26355;45.528;9.234;2023-05-29T06:19:32;21.50;99.90
40670;DHT22;26355;45.528;9.234;2023-05-29T06:21:57;21.70;99.90
40670;DHT22;26355;45.528;9.234;2023-05-29T06:24:23;21.70;99.90
40670;DHT22;26355;45.528;9.234;2023-05-29T06:26:49;21.90;99.90
40670;DHT22;26355;45.528;9.234;2023-05-29T06:29:15;22.10;99.90
40670;DHT22;26355;45.528;9.234;2023-05-29T06:31:41;22.20;99.90
40670;DHT22;26355;45.528;9.234;2023-05-29T06:34:06;22.30;99.90
40670;DHT22;26355;45.528;9.234;2023-05-29T06:36:32;22.40;99.90
40670;DHT22;26355;45.528;9.234;2023-05-29T06:38:58;22.50;99.90
40670;DHT22;26355;45.528;9.234;2023-05-29T06:41:23;22.50;99.90
40670;DHT22;26355;45.528;9.234;2023-05-29T06:43:49;22.50;99.90
40670;DHT22;26355;45.528;9.234;2023-05-29T06:46:15;22.60;99.90
40670;DHT22;26355;45.528;9.234;2023-05-29T06:48:40;22.70;99.90
40670;DHT22;26355;45.528;9.234;2023-05-29T06:51:06;22.80;99.90
40670;DHT22;26355;45.528;9.234;2023-05-29T06:53:37;22.90;99.90
40670;DHT22;26355;45.528;9.234;2023-05-29T06:56:03;22.80;99.90
40670;DHT22;26355;45.528;9.234;2023-05-29T06:58:30;23.00;99.90
40670;DHT22;26355;45.528;9.234;2023-05-29T07:00:56;23.00;99.90
40670;DHT22;26355;45.528;9.234;2023-05-29T07:03:22;23.30;99.90
40670;DHT22;26355;45.528;9.234;2023-05-29T07:05:48;23.30;99.90
40670;DHT22;26355;45.528;9.234;2023-05-29T07:08:13;23.50;99.90
40670;DHT22;26355;45.528;9.234;2023-05-29T07:10:39;23.50;99.90
40670;DHT22;26355;45.528;9.234;2023-05-29T07:13:04;23.40;99.90
40670;DHT22;26355;45.528;9.234;2023-05-29T07:15:31;23.40;99.90
40670;DHT22;26355;45.528;9.234;2023-05-29T07:17:57;23.30;99.90
40670;DHT22;26355;45.528;9.234;2023-05-29T07:20:23;23.40;99.90
40670;DHT22;26355;45.528;9.234;2023-05-29T07:22:48;23.40;99.90
40670;DHT22;26355;45.528;9.234;2023-05-29T07:25:14;23.50;99.90
40670;DHT22;26355;45.528;9.234;2023-05-29T07:27:40;23.70;99.90
40670;DHT22;26355;45.528;9.234;2023-05-29T07:30:06;23.80;99.90
40670;DHT22;26355;45.528;9.234;2023-05-29T07:32:32;23.80;99.90
40670;DHT22;26355;45.528;9.234;2023-05-29T07:34:57;23.90;99.90
40670;DHT22;26355;45.528;9.234;2023-05-29T07:37:23;23.90;99.90
40670;DHT22;26355;45.528;9.234;2023-05-29T07:39:48;23.90;99.90
40670;DHT22;26355;45.528;9.234;2023-05-29T07:42:14;23.90;99.90
40670;DHT22;26355;45.528;9.234;2023-05-29T07:44:40;24.00;99.90
40670;DHT22;26355;45.528;9.234;2023-05-29T07:47:08;24.10;99.90
40670;DHT22;26355;45.528;9.234;2023-05-29T07:49:34;24.20;99.90
40670;DHT22;26355;45.528;9.234;2023-05-29T07:52:01;24.30;99.90
40670;DHT22;26355;45.528;9.234;2023-05-29T07:54:27;24.30;99.90
40670;DHT22;26355;45.528;9.234;2023-05-29T07:56:52;24.30;99.90
40670;DHT22;26355;45.528;9.234;2023-05-29T07:59:18;24.30;99.90
40670;DHT22;26355;45.528;9.234;2023-05-29T08:01:44;24.40;99.90
40670;DHT22;26355;45.528;9.234;2023-05-29T08:04:09;24.50;99.90
40670;DHT22;26355;45.528;9.234;2023-05-29T08:06:35;24.60;99.90
40670;DHT22;26355;45.528;9.234;2023-05-29T08:09:02;24.70;99.90
40670;DHT22;26355;45.528;9.234;2023-05-29T08:11:28;24.70;99.90
40670;DHT22;26355;45.528;9.234;2023-05-29T08:13:54;24.70;99.90
40670;DHT22;26355;45.528;9.234;2023-05-29T08:16:20;24.90;99.90
40670;DHT22;26355;45.528;9.234;2023-05-29T08:18:47;24.90;99.90
40670;DHT22;26355;45.528;9.234;2023-05-29T08:21:13;25.00;99.90
40670;DHT22;26355;45.528;9.234;2023-05-29T08:23:39;25.00;99.90
40670;DHT22;26355;45.528;9.234;2023-05-29T08:26:04;25.00;99.90
40670;DHT22;26355;45.528;9.234;2023-05-29T08:28:30;25.10;99.90
40670;DHT22;26355;45.528;9.234;2023-05-29T08:30:56;25.20;99.90
40670;DHT22;26355;45.528;9.234;2023-05-29T08:33:21;25.20;99.90
40670;DHT22;26355;45.528;9.234;2023-05-29T08:35:47;25.20;99.90
40670;DHT22;26355;45.528;9.234;2023-05-29T08:38:12;25.40;99.90
40670;DHT22;26355;45.528;9.234;2023-05-29T08:40:38;25.40;99.90
40670;DHT22;26355;45.528;9.234;2023-05-29T08:43:16;25.50;99.90
40670;DHT22;26355;45.528;9.234;2023-05-29T08:45:44;25.40;99.90
40670;DHT22;26355;45.528;9.234;2023-05-29T08:48:10;25.40;99.90
40670;DHT22;26355;45.528;9.234;2023-05-29T08:50:44;25.40;99.90
40670;DHT22;26355;45.528;9.234;2023-05-29T08:53:12;25.30;99.90
40670;DHT22;26355;45.528;9.234;2023-05-29T08:55:38;25.40;99.90
40670;DHT22;26355;45.528;9.234;2023-05-29T08:58:04;25.50;99.90
40670;DHT22;26355;45.528;9.234;2023-05-29T09:00:30;25.50;99.90
40670;DHT22;26355;45.528;9.234;2023-05-29T09:02:56;25.50;99.90
40670;DHT22;26355;45.528;9.234;2023-05-29T09:05:22;25.50;99.90
40670;DHT22;26355;45.528;9.234;2023-05-29T09:07:48;25.50;99.90
40670;DHT22;26355;45.528;9.234;2023-05-29T09:10:15;25.60;99.90
40670;DHT22;26355;45.528;9.234;2023-05-29T09:12:41;25.70;99.90
40670;DHT22;26355;45.528;9.234;2023-05-29T09:15:27;25.80;99.90
40670;DHT22;26355;45.528;9.234;2023-05-29T09:17:54;25.90;99.90
40670;DHT22;26355;45.528;9.234;2023-05-29T09:20:21;25.90;99.90
40670;DHT22;26355;45.528;9.234;2023-05-29T09:22:57;25.90;99.90
40670;DHT22;26355;45.528;9.234;2023-05-29T09:25:27;25.90;99.90
40670;DHT22;26355;45.528;9.234;2023-05-29T09:30:40;26.00;99.90
40670;DHT22;26355;45.528;9.234;2023-05-29T09:33:08;26.10;99.90
40670;DHT22;26355;45.528;9.234;2023-05-29T09:35:47;26.20;99.90
40670;DHT22;26355;45.528;9.234;2023-05-29T09:38:17;26.30;99.90
40670;DHT22;26355;45.528;9.234;2023-05-29T09:40:43;26.30;99.90
40670;DHT22;26355;45.528;9.234;2023-05-29T09:43:13;26.20;99.90
40670;DHT22;26355;45.528;9.234;2023-05-29T09:45:41;26.30;99.90
40670;DHT22;26355;45.528;9.234;2023-05-29T09:48:07;26.30;99.90
40670;DHT22;26355;45.528;9.234;2023-05-29T09:50:34;26.30;99.90
40670;DHT22;26355;45.528;9.234;2023-05-29T09:53:00;26.50;99.90
40670;DHT22;26355;45.528;9.234;2023-05-29T09:55:27;26.50;99.90
40670;DHT22;26355;45.528;9.234;2023-05-29T09:57:54;26.40;99.90
40670;DHT22;26355;45.528;9.234;2023-05-29T10:00:20;26.50;99.90
40670;DHT22;26355;45.528;9.234;2023-05-29T10:02:48;26.50;99.90
40670;DHT22;26355;45.528;9.234;2023-05-29T10:05:13;26.50;99.90
40670;DHT22;26355;45.528;9.234;2023-05-29T10:07:44;26.50;99.90
40670;DHT22;26355;45.528;9.234;2023-05-29T10:10:12;26.50;99.90
40670;DHT22;26355;45.528;9.234;2023-05-29T10:12:38;26.50;99.90
40670;DHT22;26355;45.528;9.234;2023-05-29T10:15:15;26.50;99.90
40670;DHT22;26355;45.528;9.234;2023-05-29T10:20:17;26.80;99.90
40670;DHT22;26355;45.528;9.234;2023-05-29T10:22:46;26.90;99.90
40670;DHT22;26355;45.528;9.234;2023-05-29T10:25:13;27.00;99.90
40670;DHT22;26355;45.528;9.234;2023-05-29T10:27:42;27.10;99.90
40670;DHT22;26355;45.528;9.234;2023-05-29T10:35:18;26.90;99.90
40670;DHT22;26355;45.528;9.234;2023-05-29T10:37:54;26.90;99.90
40670;DHT22;26355;45.528;9.234;2023-05-29T10:40:23;26.90;99.90
40670;DHT22;26355;45.528;9.234;2023-05-29T10:42:50;27.00;99.90
40670;DHT22;26355;45.528;9.234;2023-05-29T10:50:36;27.20;99.90
40670;DHT22;26355;45.528;9.234;2023-05-29T10:53:02;27.00;99.90
40670;DHT22;26355;45.528;9.234;2023-05-29T10:55:35;26.90;99.90
40670;DHT22;26355;45.528;9.234;2023-05-29T10:58:07;26.80;99.90
40670;DHT22;26355;45.528;9.234;2023-05-29T11:00:34;26.90;99.90
40670;DHT22;26355;45.528;9.234;2023-05-29T11:03:10;26.80;99.90
40670;DHT22;26355;45.528;9.234;2023-05-29T11:05:59;26.70;99.90
40670;DHT22;26355;45.528;9.234;2023-05-29T11:08:54;26.70;99.90
40670;DHT22;26355;45.528;9.234;2023-05-29T11:11:32;26.80;99.90
40670;DHT22;26355;45.528;9.234;2023-05-29T11:14:05;27.10;99.90
40670;DHT22;26355;45.528;9.234;2023-05-29T11:18:58;27.40;99.90
40670;DHT22;26355;45.528;9.234;2023-05-29T11:23:53;27.50;99.90
40670;DHT22;26355;45.528;9.234;2023-05-29T11:26:23;27.50;99.90
40670;DHT22;26355;45.528;9.234;2023-05-29T11:28:49;27.60;99.90
40670;DHT22;26355;45.528;9.234;2023-05-29T11:31:15;27.60;99.90
40670;DHT22;26355;45.528;9.234;2023-05-29T11:33:48;27.60;99.90
40670;DHT22;26355;45.528;9.234;2023-05-29T11:36:21;27.60;99.90
40670;DHT22;26355;45.528;9.234;2023-05-29T11:38:47;27.70;99.90
40670;DHT22;26355;45.528;9.234;2023-05-29T11:41:13;27.70;99.90
40670;DHT22;26355;45.528;9.234;2023-05-29T11:43:39;27.90;99.90
40670;DHT22;26355;45.528;9.234;2023-05-29T11:46:17;27.90;99.90
40670;DHT22;26355;45.528;9.234;2023-05-29T11:48:47;28.00;99.90
40670;DHT22;26355;45.528;9.234;2023-05-29T11:51:13;28.00;99.90
40670;DHT22;26355;45.528;9.234;2023-05-29T11:53:43;28.10;99.90
40670;DHT22;26355;45.528;9.234;2023-05-29T11:56:09;28.10;99.90
40670;DHT22;26355;45.528;9.234;2023-05-29T11:58:36;28.20;99.90
40670;DHT22;26355;45.528;9.234;2023-05-29T12:01:02;28.00;99.90
40670;DHT22;26355;45.528;9.234;2023-05-29T12:03:27;28.10;99.90
40670;DHT22;26355;45.528;9.234;2023-05-29T12:05:53;28.10;99.90
40670;DHT22;26355;45.528;9.234;2023-05-29T12:08:24;28.10;99.90
40670;DHT22;26355;45.528;9.234;2023-05-29T12:10:52;28.10;99.90
40670;DHT22;26355;45.528;9.234;2023-05-29T12:13:21;28.00;99.90
40670;DHT22;26355;45.528;9.234;2023-05-29T12:15:53;28.00;99.90
40670;DHT22;26355;45.528;9.234;2023-05-29T12:18:19;27.90;99.90
40670;DHT22;26355;45.528;9.234;2023-05-29T12:20:45;28.00;99.90
40670;DHT22;26355;45.528;9.234;2023-05-29T12:23:11;28.10;99.90
40670;DHT22;26355;45.528;9.234;2023-05-29T12:25:39;28.10;99.90
40670;DHT22;26355;45.528;9.234;2023-05-29T12:28:05;28.20;99.50
40670;DHT22;26355;45.528;9.234;2023-05-29T12:30:36;28.30;99.80
40670;DHT22;26355;45.528;9.234;2023-05-29T12:33:01;28.30;99.90
40670;DHT22;26355;45.528;9.234;2023-05-29T12:35:28;28.40;99.70
40670;DHT22;26355;45.528;9.234;2023-05-29T12:37:56;28.40;99.80
40670;DHT22;26355;45.528;9.234;2023-05-29T12:40:30;28.40;99.60
40670;DHT22;26355;45.528;9.234;2023-05-29T12:43:00;28.40;99.40
40670;DHT22;26355;45.528;9.234;2023-05-29T12:45:27;28.60;99.70
40670;DHT22;26355;45.528;9.234;2023-05-29T12:47:58;28.60;99.50
40670;DHT22;26355;45.528;9.234;2023-05-29T12:50:31;28.70;99.10
40670;DHT22;26355;45.528;9.234;2023-05-29T12:52:58;28.80;99.00
40670;DHT22;26355;45.528;9.234;2023-05-29T12:55:24;28.90;98.90
40670;DHT22;26355;45.528;9.234;2023-05-29T12:57:51;28.90;99.10
40670;DHT22;26355;45.528;9.234;2023-05-29T13:00:17;28.90;98.80
40670;DHT22;26355;45.528;9.234;2023-05-29T13:02:44;28.90;98.60
40670;DHT22;26355;45.528;9.234;2023-05-29T13:05:10;28.90;98.30
40670;DHT22;26355;45.528;9.234;2023-05-29T13:07:36;28.90;98.60
40670;DHT22;26355;45.528;9.234;2023-05-29T13:10:01;28.90;98.70
40670;DHT22;26355;45.528;9.234;2023-05-29T13:12:27;29.00;98.80
40670;DHT22;26355;45.528;9.234;2023-05-29T13:14:53;28.90;98.30
40670;DHT22;26355;45.528;9.234;2023-05-29T13:17:21;28.80;98.40
40670;DHT22;26355;45.528;9.234;2023-05-29T13:19:47;28.70;98.30
40670;DHT22;26355;45.528;9.234;2023-05-29T13:22:12;28.70;98.30
40670;DHT22;26355;45.528;9.234;2023-05-29T13:24:38;28.50;98.10
40670;DHT22;26355;45.528;9.234;2023-05-29T13:27:04;28.50;97.90
40670;DHT22;26355;45.528;9.234;2023-05-29T13:29:31;28.50;97.80
40670;DHT22;26355;45.528;9.234;2023-05-29T13:31:56;28.40;97.70
40670;DHT22;26355;45.528;9.234;2023-05-29T13:34:22;28.40;98.00
40670;DHT22;26355;45.528;9.234;2023-05-29T13:36:51;28.30;97.80
40670;DHT22;26355;45.528;9.234;2023-05-29T13:39:16;28.10;97.60
40670;DHT22;26355;45.528;9.234;2023-05-29T13:41:42;28.10;97.80
40670;DHT22;26355;45.528;9.234;2023-05-29T13:44:08;28.10;97.80
40670;DHT22;26355;45.528;9.234;2023-05-29T13:46:33;28.10;97.90
40670;DHT22;26355;45.528;9.234;2023-05-29T13:48:59;28.10;97.90
40670;DHT22;26355;45.528;9.234;2023-05-29T13:51:25;28.00;98.30
40670;DHT22;26355;45.528;9.234;2023-05-29T13:53:51;28.10;98.30
40670;DHT22;26355;45.528;9.234;2023-05-29T13:56:16;28.10;98.20
40670;DHT22;26355;45.528;9.234;2023-05-29T13:58:42;28.00;98.20
40670;DHT22;26355;45.528;9.234;2023-05-29T14:01:07;28.10;98.20
40670;DHT22;26355;45.528;9.234;2023-05-29T14:03:33;28.10;98.20
40670;DHT22;26355;45.528;9.234;2023-05-29T14:05:58;28.10;98.00
40670;DHT22;26355;45.528;9.234;2023-05-29T14:08:24;28.10;98.00
40670;DHT22;26355;45.528;9.234;2023-05-29T14:10:50;28.20;97.90
40670;DHT22;26355;45.528;9.234;2023-05-29T14:13:16;28.20;98.00
40670;DHT22;26355;45.528;9.234;2023-05-29T14:15:41;28.20;98.00
40670;DHT22;26355;45.528;9.234;2023-05-29T14:18:07;28.20;98.00
40670;DHT22;26355;45.528;9.234;2023-05-29T14:20:33;28.10;98.20
40670;DHT22;26355;45.528;9.234;2023-05-29T14:22:59;28.10;98.20
40670;DHT22;26355;45.528;9.234;2023-05-29T14:25:24;28.20;98.40
40670;DHT22;26355;45.528;9.234;2023-05-29T14:27:50;28.30;98.40
40670;DHT22;26355;45.528;9.234;2023-05-29T14:30:17;28.30;98.20
40670;DHT22;26355;45.528;9.234;2023-05-29T14:32:42;28.40;98.20
40670;DHT22;26355;45.528;9.234;2023-05-29T14:35:09;28.40;97.60
40670;DHT22;26355;45.528;9.234;2023-05-29T14:37:34;28.30;97.40
40670;DHT22;26355;45.528;9.234;2023-05-29T14:40:01;28.30;97.40
40670;DHT22;26355;45.528;9.234;2023-05-29T14:42:26;28.30;97.60
40670;DHT22;26355;45.528;9.234;2023-05-29T14:44:52;28.30;97.60
40670;DHT22;26355;45.528;9.234;2023-05-29T14:47:17;28.40;97.80
40670;DHT22;26355;45.528;9.234;2023-05-29T14:49:44;28.30;97.40
40670;DHT22;26355;45.528;9.234;2023-05-29T14:52:09;28.20;97.40
40670;DHT22;26355;45.528;9.234;2023-05-29T14:54:35;28.00;97.40
40670;DHT22;26355;45.528;9.234;2023-05-29T14:57:00;28.00;97.50
40670;DHT22;26355;45.528;9.234;2023-05-29T14:59:26;27.90;97.10
40670;DHT22;26355;45.528;9.234;2023-05-29T15:01:52;27.90;97.10
40670;DHT22;26355;45.528;9.234;2023-05-29T15:04:19;27.90;97.30
40670;DHT22;26355;45.528;9.234;2023-05-29T15:06:44;27.80;96.90
40670;DHT22;26355;45.528;9.234;2023-05-29T15:09:10;27.90;97.40
40670;DHT22;26355;45.528;9.234;2023-05-29T15:11:36;27.90;97.60
40670;DHT22;26355;45.528;9.234;2023-05-29T15:14:01;27.90;97.70
40670;DHT22;26355;45.528;9.234;2023-05-29T15:16:27;27.90;97.50
40670;DHT22;26355;45.528;9.234;2023-05-29T15:18:53;27.90;97.40
40670;DHT22;26355;45.528;9.234;2023-05-29T15:21:18;27.90;97.70
40670;DHT22;26355;45.528;9.234;2023-05-29T15:23:44;27.80;97.10
40670;DHT22;26355;45.528;9.234;2023-05-29T15:26:10;27.90;97.00
40670;DHT22;26355;45.528;9.234;2023-05-29T15:28:35;27.90;97.10
40670;DHT22;26355;45.528;9.234;2023-05-29T15:31:01;27.80;97.00
40670;DHT22;26355;45.528;9.234;2023-05-29T15:33:26;27.90;97.10
40670;DHT22;26355;45.528;9.234;2023-05-29T15:35:52;28.00;97.00
40670;DHT22;26355;45.528;9.234;2023-05-29T15:38:18;28.00;96.80
40670;DHT22;26355;45.528;9.234;2023-05-29T15:40:44;28.00;96.70
40670;DHT22;26355;45.528;9.234;2023-05-29T15:43:10;27.80;96.80
40670;DHT22;26355;45.528;9.234;2023-05-29T15:45:36;27.90;96.90
40670;DHT22;26355;45.528;9.234;2023-05-29T15:48:03;27.90;97.00
40670;DHT22;26355;45.528;9.234;2023-05-29T15:50:28;27.80;97.00